El Salvador, El Salvador

2:07 AM CST on August 28, 2014 (GMT -0600)
El Salvador International | Change Station
CLOSE
Current Station
Airport
Location: El Salvador,
Elevation: 82 ft
Nearby Weather Stations

Elev 82 ft 13.44 °N, 89.06 °W | Updated 17 minutes ago

Partly Cloudy
Partly Cloudy
77 °F
Feels Like 77 °F
N
4
Wind Variable Wind from NW

Today
High -- | Low -- °F
--% Chance of Precip.
Yesterday
High -- | Low -- °F
Precip. -- in
5:44 AM 6:09 PM
Waxing Crescent, 7% visible
Pressure 29.86 in
Visibility 6.2 miles
Clouds Few 7000 ft
Dew Point 73 °F
Humidity 89%
Rainfall 0.00 in
Snow Depth Not available.
UV 0 out of 12
Pollen Not available.
Air Quality Not available.
Flu Activity Not available.
METAR MSLP 280750Z 31003KT 250V010 9999 FEW070 25/23 Q1011 A2987

More Conditions Fewer Conditions

Pressure 29.86 in
Visibility 6.2 miles
Clouds Few 7000 ft
Dew Point 73 °F
Humidity 89%
Rainfall 0.00 in
Snow Depth Not available.
UV 0 out of 12
Pollen Not available.
Air Quality Not available.
Flu Activity Not available.
METAR MSLP 280750Z 31003KT 250V010 9999 FEW070 25/23 Q1011 A2987

More Conditions Fewer Conditions

10-Day Weather Forecast

Almanac

Astronomy

Aug. 28, 2014 Rise Set
Actual Time 5:44 AM CST 6:09 PM CST
Civil Twilight 5:23 AM CST 6:31 PM CST
Nautical Twilight 4:57 AM CST 6:56 PM CST
Astronomical Twilight 4:32 AM CST 7:22 PM CST
Moon 8:01 AM CST 8:12 PM CST
Length of Visible Light 13h 08m
Length of Day
12h 25m
Tomorrow will be 0m 43s shorter.
Waxing Crescent, 7% of the Moon is Illuminated
Today
Waxing Crescent
Sep 2
First Quarter
Sep 8
Full
Sep 15
Last Quarter
Sep 24
New

Yesterday's Extremes

Country Highs Country Lows

Community

WunderPhotos

Upload Photos

1,747,916 photos uploaded!

Nearby

Snow Depth

Not available.

Earthquake Activity

City Distance Mag. Time & Date
No recent earthquake activity has been reported nearby.
Minimum magnitude displayed is 2.5.

Coastal Water Temperatures

Place Temperature
No Stations Reporting

Nearby Weather Stations